sensor_id;sensor_type;location;lat;lon;timestamp;pressure;altitude;pressure_sealevel;temperature;humidity
3102;BME280;1561;42.666;23.392;2023-08-17T00:00:51;95307.91;;;21.82;100.00
3102;BME280;1561;42.666;23.392;2023-08-17T00:03:22;95304.88;;;21.78;100.00
3102;BME280;1561;42.666;23.392;2023-08-17T00:05:49;95247.50;;;21.31;100.00
3102;BME280;1561;42.666;23.392;2023-08-17T00:08:19;95314.75;;;21.68;100.00
3102;BME280;1561;42.666;23.392;2023-08-17T00:10:51;95315.53;;;21.62;100.00
3102;BME280;1561;42.666;23.392;2023-08-17T00:13:36;95309.84;;;21.52;100.00
3102;BME280;1561;42.666;23.392;2023-08-17T00:16:06;95310.22;;;21.49;100.00
3102;BME280;1561;42.666;23.392;2023-08-17T00:18:36;95300.06;;;21.54;100.00
3102;BME280;1561;42.666;23.392;2023-08-17T00:21:04;95307.84;;;21.54;100.00
3102;BME280;1561;42.666;23.392;2023-08-17T00:23:34;95305.50;;;21.59;100.00
3102;BME280;1561;42.666;23.392;2023-08-17T00:26:16;95311.75;;;21.65;100.00
3102;BME280;1561;42.666;23.392;2023-08-17T00:29:05;95283.97;;;21.44;100.00
3102;BME280;1561;42.666;23.392;2023-08-17T00:31:34;95304.69;;;21.59;100.00
3102;BME280;1561;42.666;23.392;2023-08-17T00:34:11;95306.94;;;21.68;100.00
3102;BME280;1561;42.666;23.392;2023-08-17T00:36:44;95307.72;;;21.62;100.00
3102;BME280;1561;42.666;23.392;2023-08-17T00:39:21;95306.31;;;21.60;100.00
3102;BME280;1561;42.666;23.392;2023-08-17T00:41:53;95306.72;;;21.63;100.00
3102;BME280;1561;42.666;23.392;2023-08-17T00:44:23;95239.22;;;21.21;100.00
3102;BME280;1561;42.666;23.392;2023-08-17T00:46:52;95288.69;;;21.55;100.00
3102;BME280;1561;42.666;23.392;2023-08-17T00:49:20;95301.16;;;21.66;100.00
3102;BME280;1561;42.666;23.392;2023-08-17T00:51:52;95305.13;;;21.62;100.00
3102;BME280;1561;42.666;23.392;2023-08-17T00:54:24;95291.53;;;21.39;100.00
3102;BME280;1561;42.666;23.392;2023-08-17T00:56:53;95295.50;;;21.35;100.00
3102;BME280;1561;42.666;23.392;2023-08-17T00:59:24;95298.28;;;21.34;100.00
3102;BME280;1561;42.666;23.392;2023-08-17T01:01:55;95296.81;;;21.46;100.00
3102;BME280;1561;42.666;23.392;2023-08-17T01:04:29;95296.94;;;21.65;100.00
3102;BME280;1561;42.666;23.392;2023-08-17T01:06:57;95297.63;;;21.74;100.00
3102;BME280;1561;42.666;23.392;2023-08-17T01:09:25;95245.25;;;21.28;100.00
3102;BME280;1561;42.666;23.392;2023-08-17T01:12:00;95291.59;;;21.46;100.00
3102;BME280;1561;42.666;23.392;2023-08-17T01:14:39;95288.06;;;21.32;100.00
3102;BME280;1561;42.666;23.392;2023-08-17T01:17:17;95295.25;;;21.30;100.00
3102;BME280;1561;42.666;23.392;2023-08-17T01:19:47;95296.31;;;21.36;100.00
3102;BME280;1561;42.666;23.392;2023-08-17T01:22:17;95291.59;;;21.46;100.00
3102;BME280;1561;42.666;23.392;2023-08-17T01:24:58;95289.25;;;21.30;100.00
3102;BME280;1561;42.666;23.392;2023-08-17T01:27:39;95289.69;;;21.33;100.00
3102;BME280;1561;42.666;23.392;2023-08-17T01:30:10;95282.88;;;21.32;100.00
3102;BME280;1561;42.666;23.392;2023-08-17T01:32:41;95252.56;;;21.18;100.00
3102;BME280;1561;42.666;23.392;2023-08-17T01:35:16;95284.25;;;21.28;100.00
3102;BME280;1561;42.666;23.392;2023-08-17T01:37:51;95283.41;;;21.21;100.00
3102;BME280;1561;42.666;23.392;2023-08-17T01:40:35;95279.31;;;21.12;100.00
3102;BME280;1561;42.666;23.392;2023-08-17T01:43:05;95286.47;;;21.10;100.00
3102;BME280;1561;42.666;23.392;2023-08-17T01:45:32;95290.38;;;21.21;100.00
3102;BME280;1561;42.666;23.392;2023-08-17T01:47:59;95290.63;;;21.26;100.00
3102;BME280;1561;42.666;23.392;2023-08-17T01:50:26;95275.91;;;21.12;100.00
3102;BME280;1561;42.666;23.392;2023-08-17T01:52:59;95276.25;;;21.09;100.00
3102;BME280;1561;42.666;23.392;2023-08-17T01:55:27;95289.75;;;20.98;100.00
3102;BME280;1561;42.666;23.392;2023-08-17T01:58:10;95277.03;;;20.88;100.00
3102;BME280;1561;42.666;23.392;2023-08-17T02:00:42;95287.94;;;20.63;100.00
3102;BME280;1561;42.666;23.392;2023-08-17T02:03:16;95290.16;;;20.45;100.00
3102;BME280;1561;42.666;23.392;2023-08-17T02:05:45;95287.13;;;20.41;100.00
3102;BME280;1561;42.666;23.392;2023-08-17T02:08:13;95291.44;;;20.70;100.00
3102;BME280;1561;42.666;23.392;2023-08-17T02:10:48;95283.09;;;20.74;100.00
3102;BME280;1561;42.666;23.392;2023-08-17T02:13:19;95274.63;;;20.66;100.00
3102;BME280;1561;42.666;23.392;2023-08-17T02:15:49;95286.97;;;20.64;100.00
3102;BME280;1561;42.666;23.392;2023-08-17T02:18:19;95285.78;;;20.66;100.00
3102;BME280;1561;42.666;23.392;2023-08-17T02:20:48;95283.59;;;20.49;100.00
3102;BME280;1561;42.666;23.392;2023-08-17T02:23:15;95272.41;;;20.48;100.00
3102;BME280;1561;42.666;23.392;2023-08-17T02:25:45;95266.88;;;20.37;100.00
3102;BME280;1561;42.666;23.392;2023-08-17T02:28:15;95287.44;;;20.53;100.00
3102;BME280;1561;42.666;23.392;2023-08-17T02:30:54;95260.13;;;20.57;100.00
3102;BME280;1561;42.666;23.392;2023-08-17T02:33:22;95226.97;;;20.38;100.00
3102;BME280;1561;42.666;23.392;2023-08-17T02:35:50;95221.28;;;20.28;100.00
3102;BME280;1561;42.666;23.392;2023-08-17T02:38:18;95269.38;;;20.45;100.00
3102;BME280;1561;42.666;23.392;2023-08-17T02:40:46;95220.91;;;20.02;100.00
3102;BME280;1561;42.666;23.392;2023-08-17T02:43:14;95266.91;;;20.22;100.00
3102;BME280;1561;42.666;23.392;2023-08-17T02:45:49;95270.22;;;20.31;100.00
3102;BME280;1561;42.666;23.392;2023-08-17T02:48:20;95281.13;;;20.26;100.00
3102;BME280;1561;42.666;23.392;2023-08-17T02:50:48;95262.78;;;20.13;100.00
3102;BME280;1561;42.666;23.392;2023-08-17T02:53:16;95261.72;;;20.08;100.00
3102;BME280;1561;42.666;23.392;2023-08-17T02:55:46;95198.97;;;19.69;100.00
3102;BME280;1561;42.666;23.392;2023-08-17T02:58:17;95271.75;;;20.11;100.00
3102;BME280;1561;42.666;23.392;2023-08-17T03:00:52;95270.66;;;20.05;100.00
3102;BME280;1561;42.666;23.392;2023-08-17T03:03:21;95259.47;;;20.05;100.00
3102;BME280;1561;42.666;23.392;2023-08-17T03:05:49;95266.59;;;20.03;100.00
3102;BME280;1561;42.666;23.392;2023-08-17T03:08:18;95277.88;;;19.95;100.00
3102;BME280;1561;42.666;23.392;2023-08-17T03:10:48;95273.00;;;19.86;100.00
3102;BME280;1561;42.666;23.392;2023-08-17T03:13:21;95276.75;;;19.83;100.00
3102;BME280;1561;42.666;23.392;2023-08-17T03:15:55;95270.03;;;19.74;100.00
3102;BME280;1561;42.666;23.392;2023-08-17T03:18:31;95276.19;;;19.73;100.00
3102;BME280;1561;42.666;23.392;2023-08-17T03:21:13;95280.66;;;19.65;100.00
3102;BME280;1561;42.666;23.392;2023-08-17T03:23:44;95270.97;;;19.44;100.00
3102;BME280;1561;42.666;23.392;2023-08-17T03:26:13;95281.75;;;19.33;100.00
3102;BME280;1561;42.666;23.392;2023-08-17T03:28:44;95277.88;;;19.29;100.00
3102;BME280;1561;42.666;23.392;2023-08-17T03:31:20;95279.81;;;19.50;100.00
3102;BME280;1561;42.666;23.392;2023-08-17T03:33:59;95277.41;;;19.63;100.00
3102;BME280;1561;42.666;23.392;2023-08-17T03:36:33;95279.66;;;19.66;100.00
3102;BME280;1561;42.666;23.392;2023-08-17T03:39:05;95282.41;;;19.50;100.00
3102;BME280;1561;42.666;23.392;2023-08-17T03:41:33;95253.13;;;19.27;100.00
3102;BME280;1561;42.666;23.392;2023-08-17T03:44:02;95271.03;;;19.36;100.00
3102;BME280;1561;42.666;23.392;2023-08-17T03:46:32;95279.19;;;19.48;100.00
3102;BME280;1561;42.666;23.392;2023-08-17T03:49:02;95294.94;;;19.61;100.00
3102;BME280;1561;42.666;23.392;2023-08-17T03:51:29;95270.16;;;19.44;100.00
3102;BME280;1561;42.666;23.392;2023-08-17T03:54:00;95271.78;;;19.59;100.00
3102;BME280;1561;42.666;23.392;2023-08-17T03:56:30;95256.97;;;19.82;100.00
3102;BME280;1561;42.666;23.392;2023-08-17T03:58:57;95281.00;;;20.49;100.00
3102;BME280;1561;42.666;23.392;2023-08-17T04:01:25;95281.19;;;20.83;100.00
3102;BME280;1561;42.666;23.392;2023-08-17T04:03:55;95287.91;;;21.13;100.00
3102;BME280;1561;42.666;23.392;2023-08-17T04:06:26;95283.13;;;21.37;100.00
3102;BME280;1561;42.666;23.392;2023-08-17T04:08:56;95282.28;;;21.30;100.00
3102;BME280;1561;42.666;23.392;2023-08-17T04:11:42;95288.97;;;21.67;100.00
3102;BME280;1561;42.666;23.392;2023-08-17T04:14:09;95286.22;;;22.02;100.00
3102;BME280;1561;42.666;23.392;2023-08-17T04:16:43;95280.34;;;21.66;100.00
3102;BME280;1561;42.666;23.392;2023-08-17T04:19:12;95286.03;;;22.04;100.00
3102;BME280;1561;42.666;23.392;2023-08-17T04:21:41;95284.31;;;22.58;100.00
3102;BME280;1561;42.666;23.392;2023-08-17T04:24:11;95229.84;;;22.16;100.00
3102;BME280;1561;42.666;23.392;2023-08-17T04:26:46;95283.34;;;22.25;100.00
3102;BME280;1561;42.666;23.392;2023-08-17T04:29:15;95281.50;;;22.53;100.00
3102;BME280;1561;42.666;23.392;2023-08-17T04:31:46;95280.06;;;22.50;100.00
3102;BME280;1561;42.666;23.392;2023-08-17T04:34:15;95286.19;;;22.90;100.00
3102;BME280;1561;42.666;23.392;2023-08-17T04:36:48;95283.84;;;23.01;100.00
3102;BME280;1561;42.666;23.392;2023-08-17T04:39:20;95271.84;;;23.27;100.00
3102;BME280;1561;42.666;23.392;2023-08-17T04:41:58;95272.06;;;23.71;100.00
3102;BME280;1561;42.666;23.392;2023-08-17T04:44:41;95271.22;;;24.09;100.00
3102;BME280;1561;42.666;23.392;2023-08-17T04:47:12;95273.25;;;24.71;100.00
3102;BME280;1561;42.666;23.392;2023-08-17T04:49:41;95275.59;;;25.16;97.45
3102;BME280;1561;42.666;23.392;2023-08-17T04:52:10;95277.63;;;25.45;93.30
3102;BME280;1561;42.666;23.392;2023-08-17T04:54:43;95264.72;;;26.17;86.41
3102;BME280;1561;42.666;23.392;2023-08-17T04:57:17;95258.94;;;26.63;83.66
3102;BME280;1561;42.666;23.392;2023-08-17T04:59:45;95266.53;;;27.00;81.06
3102;BME280;1561;42.666;23.392;2023-08-17T05:02:12;95262.03;;;28.40;67.96
3102;BME280;1561;42.666;23.392;2023-08-17T05:04:43;95271.50;;;28.30;68.41
3102;BME280;1561;42.666;23.392;2023-08-17T05:07:13;95270.19;;;27.81;72.55
3102;BME280;1561;42.666;23.392;2023-08-17T05:09:44;95238.38;;;27.48;73.62
3102;BME280;1561;42.666;23.392;2023-08-17T05:12:12;95207.25;;;27.98;67.28
3102;BME280;1561;42.666;23.392;2023-08-17T05:14:40;95263.69;;;28.69;64.54
3102;BME280;1561;42.666;23.392;2023-08-17T05:17:12;95269.94;;;28.06;67.65
3102;BME280;1561;42.666;23.392;2023-08-17T05:19:39;95215.34;;;27.96;76.41
3102;BME280;1561;42.666;23.392;2023-08-17T05:22:12;95279.81;;;26.87;89.97
3102;BME280;1561;42.666;23.392;2023-08-17T05:24:39;95270.69;;;27.49;86.42
3102;BME280;1561;42.666;23.392;2023-08-17T05:27:07;95270.59;;;28.24;82.51
3102;BME280;1561;42.666;23.392;2023-08-17T05:29:37;95273.25;;;27.90;83.80
3102;BME280;1561;42.666;23.392;2023-08-17T05:32:12;95276.50;;;27.51;85.14
3102;BME280;1561;42.666;23.392;2023-08-17T05:34:39;95268.56;;;28.03;84.55
3102;BME280;1561;42.666;23.392;2023-08-17T05:37:06;95270.34;;;28.60;79.72
3102;BME280;1561;42.666;23.392;2023-08-17T05:39:38;95268.75;;;28.36;81.85
3102;BME280;1561;42.666;23.392;2023-08-17T05:42:06;95272.56;;;28.06;81.85
3102;BME280;1561;42.666;23.392;2023-08-17T05:44:36;95277.63;;;27.55;87.58
3102;BME280;1561;42.666;23.392;2023-08-17T05:47:04;95264.88;;;27.70;84.95
3102;BME280;1561;42.666;23.392;2023-08-17T05:49:35;95276.50;;;28.94;73.70
3102;BME280;1561;42.666;23.392;2023-08-17T05:52:06;95274.50;;;29.74;68.25
3102;BME280;1561;42.666;23.392;2023-08-17T05:54:40;95280.75;;;28.44;75.25
3102;BME280;1561;42.666;23.392;2023-08-17T05:57:11;95271.44;;;27.90;79.39
3102;BME280;1561;42.666;23.392;2023-08-17T05:59:45;95255.59;;;29.60;69.20
3102;BME280;1561;42.666;23.392;2023-08-17T06:02:13;95281.66;;;30.28;62.38
3102;BME280;1561;42.666;23.392;2023-08-17T06:04:52;95284.63;;;28.92;72.18
3102;BME280;1561;42.666;23.392;2023-08-17T06:07:20;95279.13;;;29.05;70.74
3102;BME280;1561;42.666;23.392;2023-08-17T06:09:52;95283.69;;;29.71;66.86
3102;BME280;1561;42.666;23.392;2023-08-17T06:12:22;95283.69;;;31.07;61.35
3102;BME280;1561;42.666;23.392;2023-08-17T06:15:20;95272.25;;;31.49;56.41
3102;BME280;1561;42.666;23.392;2023-08-17T06:17:47;95281.25;;;31.53;55.56
3102;BME280;1561;42.666;23.392;2023-08-17T06:20:18;95266.28;;;31.64;54.45
3102;BME280;1561;42.666;23.392;2023-08-17T06:22:47;95272.53;;;31.79;54.36
3102;BME280;1561;42.666;23.392;2023-08-17T06:25:21;95266.31;;;32.93;51.92
3102;BME280;1561;42.666;23.392;2023-08-17T06:27:52;95276.84;;;31.90;53.13
3102;BME280;1561;42.666;23.392;2023-08-17T06:30:19;95290.59;;;31.61;56.16
3102;BME280;1561;42.666;23.392;2023-08-17T06:32:50;95276.25;;;31.83;57.57
3102;BME280;1561;42.666;23.392;2023-08-17T06:35:19;95275.72;;;31.81;59.24
3102;BME280;1561;42.666;23.392;2023-08-17T06:37:51;95285.19;;;32.14;58.66
3102;BME280;1561;42.666;23.392;2023-08-17T06:40:23;95280.63;;;32.41;58.39
3102;BME280;1561;42.666;23.392;2023-08-17T06:42:59;95289.84;;;31.97;60.71
3102;BME280;1561;42.666;23.392;2023-08-17T06:45:29;95284.88;;;32.47;60.49
3102;BME280;1561;42.666;23.392;2023-08-17T06:47:58;95285.13;;;32.45;60.93
3102;BME280;1561;42.666;23.392;2023-08-17T06:50:25;95276.47;;;33.26;57.51
3102;BME280;1561;42.666;23.392;2023-08-17T06:52:55;95278.66;;;32.73;60.05
3102;BME280;1561;42.666;23.392;2023-08-17T06:55:24;95287.97;;;31.97;61.62
3102;BME280;1561;42.666;23.392;2023-08-17T06:58:08;95284.00;;;31.95;62.37
3102;BME280;1561;42.666;23.392;2023-08-17T07:00:35;95281.91;;;32.80;60.48
3102;BME280;1561;42.666;23.392;2023-08-17T07:03:17;95280.22;;;33.40;56.14
3102;BME280;1561;42.666;23.392;2023-08-17T07:05:47;95277.84;;;33.79;55.94
3102;BME280;1561;42.666;23.392;2023-08-17T07:08:18;95285.06;;;35.79;50.02
3102;BME280;1561;42.666;23.392;2023-08-17T07:10:49;95283.38;;;34.37;52.12
3102;BME280;1561;42.666;23.392;2023-08-17T07:13:16;95285.94;;;34.72;52.20
3102;BME280;1561;42.666;23.392;2023-08-17T07:15:46;95284.34;;;33.11;52.44
3102;BME280;1561;42.666;23.392;2023-08-17T07:18:14;95281.28;;;33.49;51.12
3102;BME280;1561;42.666;23.392;2023-08-17T07:20:41;95257.88;;;33.11;53.54
3102;BME280;1561;42.666;23.392;2023-08-17T07:23:28;95277.25;;;33.32;52.29
3102;BME280;1561;42.666;23.392;2023-08-17T07:25:59;95263.75;;;34.33;49.80
3102;BME280;1561;42.666;23.392;2023-08-17T07:28:30;95267.81;;;35.77;44.31
3102;BME280;1561;42.666;23.392;2023-08-17T07:30:58;95199.75;;;34.45;45.38
3102;BME280;1561;42.666;23.392;2023-08-17T07:33:30;95271.00;;;34.92;44.83
3102;BME280;1561;42.666;23.392;2023-08-17T07:36:01;95266.06;;;35.19;43.73
3102;BME280;1561;42.666;23.392;2023-08-17T07:38:40;95264.94;;;34.71;38.64
3102;BME280;1561;42.666;23.392;2023-08-17T07:41:23;95261.69;;;35.81;39.05
3102;BME280;1561;42.666;23.392;2023-08-17T07:44:00;95265.91;;;34.95;37.63
3102;BME280;1561;42.666;23.392;2023-08-17T07:46:59;95258.03;;;34.75;38.07
3102;BME280;1561;42.666;23.392;2023-08-17T07:49:29;95261.66;;;33.60;39.03
3102;BME280;1561;42.666;23.392;2023-08-17T07:52:00;95263.78;;;34.03;39.42
3102;BME280;1561;42.666;23.392;2023-08-17T07:54:27;95274.91;;;33.40;40.26
3102;BME280;1561;42.666;23.392;2023-08-17T07:57:00;95257.78;;;34.66;38.72
3102;BME280;1561;42.666;23.392;2023-08-17T07:59:33;95272.41;;;34.64;39.49
3102;BME280;1561;42.666;23.392;2023-08-17T08:02:07;95263.28;;;34.90;38.82
3102;BME280;1561;42.666;23.392;2023-08-17T08:04:39;95245.53;;;32.60;41.94
3102;BME280;1561;42.666;23.392;2023-08-17T08:07:12;95251.84;;;33.66;41.24
3102;BME280;1561;42.666;23.392;2023-08-17T08:09:49;95254.75;;;34.04;41.93
3102;BME280;1561;42.666;23.392;2023-08-17T08:12:27;95244.09;;;35.03;40.50
3102;BME280;1561;42.666;23.392;2023-08-17T08:14:55;95233.84;;;34.87;40.85
3102;BME280;1561;42.666;23.392;2023-08-17T08:17:22;95236.44;;;34.23;41.60
3102;BME280;1561;42.666;23.392;2023-08-17T08:19:58;95242.25;;;35.04;41.26
3102;BME280;1561;42.666;23.392;2023-08-17T08:22:28;95239.13;;;35.35;40.51
3102;BME280;1561;42.666;23.392;2023-08-17T08:25:05;95181.59;;;33.93;41.88
3102;BME280;1561;42.666;23.392;2023-08-17T08:27:40;95233.00;;;33.22;44.18
3102;BME280;1561;42.666;23.392;2023-08-17T08:30:13;95228.81;;;33.71;43.38
3102;BME280;1561;42.666;23.392;2023-08-17T08:32:41;95229.34;;;33.53;44.14
3102;BME280;1561;42.666;23.392;2023-08-17T08:35:17;95237.69;;;34.50;42.55
3102;BME280;1561;42.666;23.392;2023-08-17T08:37:49;95223.50;;;33.56;43.57
3102;BME280;1561;42.666;23.392;2023-08-17T08:40:27;95227.22;;;33.40;44.71
3102;BME280;1561;42.666;23.392;2023-08-17T08:43:01;95235.41;;;33.54;43.94
3102;BME280;1561;42.666;23.392;2023-08-17T08:45:35;95226.69;;;34.77;41.96
3102;BME280;1561;42.666;23.392;2023-08-17T08:48:09;95227.72;;;33.77;43.89
3102;BME280;1561;42.666;23.392;2023-08-17T08:50:40;95224.78;;;34.14;43.69
3102;BME280;1561;42.666;23.392;2023-08-17T08:53:13;95230.41;;;33.82;43.88
3102;BME280;1561;42.666;23.392;2023-08-17T08:55:52;95223.81;;;35.17;41.87
3102;BME280;1561;42.666;23.392;2023-08-17T08:58:31;95229.59;;;34.86;41.88
3102;BME280;1561;42.666;23.392;2023-08-17T09:01:16;95217.88;;;34.18;42.89
3102;BME280;1561;42.666;23.392;2023-08-17T09:03:47;95217.41;;;33.41;44.45
3102;BME280;1561;42.666;23.392;2023-08-17T09:06:16;95218.22;;;33.41;44.69
3102;BME280;1561;42.666;23.392;2023-08-17T09:09:06;95219.78;;;33.87;43.48
3102;BME280;1561;42.666;23.392;2023-08-17T09:11:37;95226.13;;;33.96;43.06
3102;BME280;1561;42.666;23.392;2023-08-17T09:14:11;95193.75;;;35.60;41.18
3102;BME280;1561;42.666;23.392;2023-08-17T09:16:44;95200.38;;;36.43;37.91
3102;BME280;1561;42.666;23.392;2023-08-17T09:19:26;95134.41;;;34.59;39.82
3102;BME280;1561;42.666;23.392;2023-08-17T09:22:01;95172.56;;;36.07;38.65
3102;BME280;1561;42.666;23.392;2023-08-17T09:24:40;95200.66;;;34.84;40.52
3102;BME280;1561;42.666;23.392;2023-08-17T09:27:12;95192.00;;;34.53;39.92
3102;BME280;1561;42.666;23.392;2023-08-17T09:30:01;95183.44;;;33.93;39.94
3102;BME280;1561;42.666;23.392;2023-08-17T09:32:31;95186.38;;;34.65;39.49
3102;BME280;1561;42.666;23.392;2023-08-17T09:35:07;95176.38;;;34.52;39.19
3102;BME280;1561;42.666;23.392;2023-08-17T09:37:35;95176.34;;;33.48;39.73
3102;BME280;1561;42.666;23.392;2023-08-17T09:40:06;95169.34;;;34.12;39.75
3102;BME280;1561;42.666;23.392;2023-08-17T09:42:37;95178.66;;;34.78;38.23
3102;BME280;1561;42.666;23.392;2023-08-17T09:45:11;95185.44;;;35.00;37.84
3102;BME280;1561;42.666;23.392;2023-08-17T09:47:48;95181.56;;;34.72;38.03
3102;BME280;1561;42.666;23.392;2023-08-17T09:50:15;95154.09;;;34.97;37.42
3102;BME280;1561;42.666;23.392;2023-08-17T09:52:46;95170.41;;;36.09;36.44
3102;BME280;1561;42.666;23.392;2023-08-17T09:55:25;95154.63;;;35.66;36.38
3102;BME280;1561;42.666;23.392;2023-08-17T09:57:56;95159.88;;;34.60;37.82
3102;BME280;1561;42.666;23.392;2023-08-17T10:00:27;95157.22;;;33.71;39.66
3102;BME280;1561;42.666;23.392;2023-08-17T10:03:03;95140.97;;;34.66;38.02
3102;BME280;1561;42.666;23.392;2023-08-17T10:05:42;95140.28;;;35.00;37.06
3102;BME280;1561;42.666;23.392;2023-08-17T10:08:19;95141.56;;;34.63;37.28
3102;BME280;1561;42.666;23.392;2023-08-17T10:10:52;95166.84;;;34.46;37.68
3102;BME280;1561;42.666;23.392;2023-08-17T10:13:28;95154.22;;;34.13;37.55
3102;BME280;1561;42.666;23.392;2023-08-17T10:16:17;95145.50;;;34.07;37.84
3102;BME280;1561;42.666;23.392;2023-08-17T10:18:54;95143.31;;;34.24;37.06
3102;BME280;1561;42.666;23.392;2023-08-17T10:21:35;95167.09;;;34.54;36.88
3102;BME280;1561;42.666;23.392;2023-08-17T10:24:06;95134.06;;;35.14;36.40
3102;BME280;1561;42.666;23.392;2023-08-17T10:26:38;95121.53;;;34.22;37.34
3102;BME280;1561;42.666;23.392;2023-08-17T10:29:08;95145.44;;;34.17;37.62
3102;BME280;1561;42.666;23.392;2023-08-17T10:31:44;95149.69;;;34.13;37.67
3102;BME280;1561;42.666;23.392;2023-08-17T10:34:13;95130.44;;;33.78;38.36
3102;BME280;1561;42.666;23.392;2023-08-17T10:36:42;95123.75;;;34.64;37.54
3102;BME280;1561;42.666;23.392;2023-08-17T10:39:21;95142.00;;;34.17;37.59
3102;BME280;1561;42.666;23.392;2023-08-17T10:41:50;95116.41;;;33.72;38.42
3102;BME280;1561;42.666;23.392;2023-08-17T10:44:45;95121.06;;;34.15;38.50
3102;BME280;1561;42.666;23.392;2023-08-17T10:47:36;95120.94;;;35.28;37.17
3102;BME280;1561;42.666;23.392;2023-08-17T10:50:05;95119.59;;;35.30;36.50
3102;BME280;1561;42.666;23.392;2023-08-17T10:52:43;95124.97;;;34.87;36.60
3102;BME280;1561;42.666;23.392;2023-08-17T10:55:36;95120.47;;;35.21;35.99
3102;BME280;1561;42.666;23.392;2023-08-17T10:58:07;95126.09;;;34.17;39.08
3102;BME280;1561;42.666;23.392;2023-08-17T11:00:37;95123.09;;;34.87;38.08
3102;BME280;1561;42.666;23.392;2023-08-17T11:03:17;95104.59;;;34.72;38.76
3102;BME280;1561;42.666;23.392;2023-08-17T11:05:47;95098.34;;;33.74;40.83
3102;BME280;1561;42.666;23.392;2023-08-17T11:08:28;95116.69;;;33.86;40.61
3102;BME280;1561;42.666;23.392;2023-08-17T11:11:12;95113.00;;;33.17;42.21
3102;BME280;1561;42.666;23.392;2023-08-17T11:13:44;95109.59;;;32.96;43.08
3102;BME280;1561;42.666;23.392;2023-08-17T11:16:16;95068.25;;;32.90;43.22
3102;BME280;1561;42.666;23.392;2023-08-17T11:18:47;95100.31;;;33.39;42.54
3102;BME280;1561;42.666;23.392;2023-08-17T11:21:18;95112.09;;;32.41;43.83
3102;BME280;1561;42.666;23.392;2023-08-17T11:23:56;95093.31;;;32.28;44.82
3102;BME280;1561;42.666;23.392;2023-08-17T11:26:33;95098.66;;;31.40;44.87
3102;BME280;1561;42.666;23.392;2023-08-17T11:29:18;95092.38;;;32.94;42.42
3102;BME280;1561;42.666;23.392;2023-08-17T11:31:50;95080.69;;;33.45;41.97
3102;BME280;1561;42.666;23.392;2023-08-17T11:34:29;95092.31;;;32.79;43.47
3102;BME280;1561;42.666;23.392;2023-08-17T11:37:03;95099.50;;;33.48;42.40
3102;BME280;1561;42.666;23.392;2023-08-17T11:39:37;95090.75;;;33.28;43.31
3102;BME280;1561;42.666;23.392;2023-08-17T11:42:15;95086.47;;;32.52;44.66
3102;BME280;1561;42.666;23.392;2023-08-17T11:44:42;95109.78;;;31.88;46.63
3102;BME280;1561;42.666;23.392;2023-08-17T11:47:12;95082.06;;;31.96;47.18
3102;BME280;1561;42.666;23.392;2023-08-17T11:49:49;95067.81;;;32.02;46.63
3102;BME280;1561;42.666;23.392;2023-08-17T11:52:17;95076.28;;;31.52;47.74
3102;BME280;1561;42.666;23.392;2023-08-17T11:54:45;95085.13;;;32.29;46.83
3102;BME280;1561;42.666;23.392;2023-08-17T11:57:13;95073.00;;;31.35;47.97
3102;BME280;1561;42.666;23.392;2023-08-17T11:59:53;95078.47;;;31.70;47.31
3102;BME280;1561;42.666;23.392;2023-08-17T12:02:23;95071.63;;;31.69;47.64
3102;BME280;1561;42.666;23.392;2023-08-17T12:04:57;95077.53;;;31.40;47.14
3102;BME280;1561;42.666;23.392;2023-08-17T12:07:24;95090.78;;;31.96;45.96
3102;BME280;1561;42.666;23.392;2023-08-17T12:09:53;95073.50;;;31.74;47.48
3102;BME280;1561;42.666;23.392;2023-08-17T12:12:22;95054.31;;;31.98;46.67
3102;BME280;1561;42.666;23.392;2023-08-17T12:15:00;95072.06;;;32.13;46.51
3102;BME280;1561;42.666;23.392;2023-08-17T12:17:29;95057.63;;;32.40;45.68
3102;BME280;1561;42.666;23.392;2023-08-17T12:20:07;95071.91;;;32.54;45.43
3102;BME280;1561;42.666;23.392;2023-08-17T12:22:36;95074.19;;;32.16;48.27
3102;BME280;1561;42.666;23.392;2023-08-17T12:25:09;95064.75;;;32.40;48.52
3102;BME280;1561;42.666;23.392;2023-08-17T12:27:46;95037.31;;;31.79;49.36
3102;BME280;1561;42.666;23.392;2023-08-17T12:30:24;95057.78;;;31.11;50.31
3102;BME280;1561;42.666;23.392;2023-08-17T12:32:52;95048.25;;;31.10;49.74
3102;BME280;1561;42.666;23.392;2023-08-17T12:35:29;95053.22;;;31.01;50.82
3102;BME280;1561;42.666;23.392;2023-08-17T12:37:57;95059.31;;;31.07;50.92
3102;BME280;1561;42.666;23.392;2023-08-17T12:40:28;95055.69;;;31.13;51.64
3102;BME280;1561;42.666;23.392;2023-08-17T12:43:06;95055.72;;;31.59;50.55
3102;BME280;1561;42.666;23.392;2023-08-17T12:45:36;95058.06;;;31.14;53.86
3102;BME280;1561;42.666;23.392;2023-08-17T12:48:12;95059.78;;;31.30;54.57
3102;BME280;1561;42.666;23.392;2023-08-17T12:50:42;95059.25;;;31.28;60.39
3102;BME280;1561;42.666;23.392;2023-08-17T12:53:12;95065.34;;;31.34;60.61
3102;BME280;1561;42.666;23.392;2023-08-17T12:55:40;95071.44;;;31.39;58.17
3102;BME280;1561;42.666;23.392;2023-08-17T12:58:13;95065.56;;;30.91;57.66
3102;BME280;1561;42.666;23.392;2023-08-17T13:00:49;95069.38;;;31.46;56.86
3102;BME280;1561;42.666;23.392;2023-08-17T13:03:32;95061.75;;;31.55;56.30
3102;BME280;1561;42.666;23.392;2023-08-17T13:06:03;95063.56;;;31.08;59.04
3102;BME280;1561;42.666;23.392;2023-08-17T13:08:40;95047.94;;;31.38;59.14
3102;BME280;1561;42.666;23.392;2023-08-17T13:11:12;95057.44;;;30.97;61.28
3102;BME280;1561;42.666;23.392;2023-08-17T13:13:43;95042.16;;;31.04;60.44
3102;BME280;1561;42.666;23.392;2023-08-17T13:16:11;95065.53;;;31.22;59.51
3102;BME280;1561;42.666;23.392;2023-08-17T13:18:41;95068.31;;;31.42;59.27
3102;BME280;1561;42.666;23.392;2023-08-17T13:21:15;95044.75;;;31.31;62.16
3102;BME280;1561;42.666;23.392;2023-08-17T13:23:45;95054.88;;;31.12;64.57
3102;BME280;1561;42.666;23.392;2023-08-17T13:26:15;95059.53;;;31.00;64.49
3102;BME280;1561;42.666;23.392;2023-08-17T13:28:43;95004.97;;;30.43;64.44
3102;BME280;1561;42.666;23.392;2023-08-17T13:31:14;95061.81;;;30.60;62.89
3102;BME280;1561;42.666;23.392;2023-08-17T13:33:52;95070.88;;;30.96;61.58
3102;BME280;1561;42.666;23.392;2023-08-17T13:36:21;95067.97;;;30.97;61.76